Essex, New York
Current Conditions -  °F | °C
As of 7:54 PM on Friday 24 Oct 2014 (Local Time) from KBTV Reporting Station
Overcast Overcast  
Wind Chill: 47°   Ceiling: 5500
Heat Index: 47°   Visibility: 10mi
Dew Point: 41°   Wind: 3mph
Humidity: 80%   Direction: 100°E
Pressure: 29.84"   Gusts: NA
Location:  44.31°N, 73.35°W
Report Text: KBTV 242354Z 10003KT 10SM OVC055 08/05 A2984 RMK AO2 SLP109 60000 T00830050 10089 20078 50002
Loading
Personal Weather Stations






























Interactive Weather Map
Tropical Storm Tracking
New forecast layout! Learn more

10-Day Weather Forecast

Advertisements
Track Severe Weather on mobile